createdAt,value
2018-08-13T00:02:38.129Z,79.60
2018-08-13T00:05:18.822Z,79.70
2018-08-13T00:08:00.590Z,82.20
2018-08-13T00:10:41.568Z,86.10
2018-08-13T00:13:22.162Z,88.30
2018-08-13T00:16:02.775Z,89.10
2018-08-13T00:18:43.845Z,91.10
2018-08-13T00:21:25.138Z,91.60
2018-08-13T00:24:05.744Z,91.90
2018-08-13T00:26:46.486Z,92.90
2018-08-13T00:29:27.286Z,94.20
2018-08-13T00:32:08.750Z,94.80
2018-08-13T00:34:49.481Z,95.50
2018-08-13T00:37:30.798Z,96.40
2018-08-13T00:40:13.070Z,97.10
2018-08-13T00:42:54.125Z,97.60
2018-08-13T00:45:34.740Z,98.00
2018-08-13T00:48:15.908Z,98.50
2018-08-13T00:50:57.001Z,99.00
2018-08-13T00:53:38.594Z,99.50
2018-08-13T00:56:20.093Z,99.90
2018-08-13T00:59:02.001Z,99.90
2018-08-13T01:01:43.109Z,99.90
2018-08-13T01:04:24.498Z,99.90
2018-08-13T01:07:05.463Z,99.90
2018-08-13T01:09:46.776Z,99.90
2018-08-13T01:12:27.349Z,99.90
2018-08-13T01:15:09.194Z,99.90
2018-08-13T01:17:51.273Z,99.90
2018-08-13T01:20:32.220Z,99.60
2018-08-13T01:23:13.654Z,99.50
2018-08-13T01:25:54.306Z,99.10
2018-08-13T01:28:35.810Z,98.80
2018-08-13T01:31:16.504Z,98.70
2018-08-13T01:33:57.944Z,98.50
2018-08-13T01:36:38.633Z,98.30
2018-08-13T01:39:20.145Z,98.30
2018-08-13T01:42:00.723Z,98.20
2018-08-13T01:44:41.403Z,98.10
2018-08-13T01:47:22.917Z,98.00
2018-08-13T01:50:03.590Z,97.80
2018-08-13T01:52:44.893Z,97.80
2018-08-13T01:55:25.817Z,97.70
2018-08-13T01:58:07.441Z,97.60
2018-08-13T02:00:48.881Z,97.50
2018-08-13T02:03:29.664Z,97.50
2018-08-13T02:06:11.165Z,97.60
2018-08-13T02:08:52.590Z,97.40
2018-08-13T02:11:33.198Z,97.50
2018-08-13T02:14:14.565Z,97.30
2018-08-13T02:16:56.929Z,97.20
2018-08-13T02:19:37.710Z,97.20
2018-08-13T02:22:19.483Z,97.20
2018-08-13T02:25:00.893Z,97.10
2018-08-13T02:27:42.409Z,96.70
2018-08-13T02:30:23.890Z,96.70
2018-08-13T02:33:05.445Z,96.50
2018-08-13T02:35:46.015Z,96.40
2018-08-13T02:38:26.850Z,95.90
2018-08-13T02:41:08.298Z,95.70
2018-08-13T02:43:50.385Z,95.60
2018-08-13T02:46:31.239Z,95.40
2018-08-13T02:49:12.762Z,95.20
2018-08-13T02:51:54.239Z,95.10
2018-08-13T02:54:34.993Z,95.10
2018-08-13T02:57:16.468Z,95.00
2018-08-13T02:59:57.605Z,95.00
2018-08-13T03:02:39.021Z,95.00
2018-08-13T03:05:20.270Z,95.00
2018-08-13T03:08:00.937Z,95.00
2018-08-13T03:10:42.453Z,95.10
2018-08-13T03:13:23.813Z,95.20
2018-08-13T03:16:04.541Z,95.30
2018-08-13T03:18:46.138Z,95.30
2018-08-13T03:21:27.991Z,95.20
2018-08-13T03:24:09.017Z,95.30
2018-08-13T03:26:49.586Z,95.40
2018-08-13T03:29:31.150Z,95.40
2018-08-13T03:32:11.801Z,95.50
2018-08-13T03:34:53.348Z,95.60
2018-08-13T03:37:33.940Z,95.80
2018-08-13T03:40:14.611Z,95.80
2018-08-13T03:42:56.225Z,96.00
2018-08-13T03:45:38.051Z,96.10
2018-08-13T03:48:19.272Z,96.20
2018-08-13T03:51:00.724Z,96.20
2018-08-13T03:53:41.365Z,96.30
2018-08-13T03:56:22.762Z,96.30
2018-08-13T03:59:03.493Z,96.20
2018-08-13T04:01:45.061Z,96.10
2018-08-13T04:04:25.734Z,95.90
2018-08-13T04:07:07.293Z,95.80
2018-08-13T04:09:48.677Z,95.70
2018-08-13T04:12:29.304Z,95.70
2018-08-13T04:15:12.493Z,95.60
2018-08-13T04:17:53.476Z,95.50
2018-08-13T04:20:34.952Z,95.40
2018-08-13T04:23:15.692Z,95.30
2018-08-13T04:25:57.130Z,95.40
2018-08-13T04:28:37.961Z,95.40
2018-08-13T04:31:19.405Z,95.40
2018-08-13T04:34:00.006Z,95.60
2018-08-13T04:36:41.482Z,95.60
2018-08-13T04:39:23.001Z,95.20
2018-08-13T04:42:03.566Z,94.70
2018-08-13T04:44:46.459Z,94.90
2018-08-13T04:47:27.748Z,95.10
2018-08-13T04:50:08.611Z,95.10
2018-08-13T04:52:50.361Z,95.30
2018-08-13T04:55:31.830Z,95.50
2018-08-13T04:58:13.210Z,95.60
2018-08-13T05:00:55.240Z,95.80
2018-08-13T05:03:36.579Z,96.10
2018-08-13T05:06:17.237Z,96.20
2018-08-13T05:08:58.573Z,96.40
2018-08-13T05:11:39.861Z,96.60
2018-08-13T05:14:20.945Z,96.60
2018-08-13T05:17:01.639Z,96.50
2018-08-13T05:19:43.208Z,96.50
2018-08-13T05:22:23.738Z,96.50
2018-08-13T05:25:04.377Z,96.50
2018-08-13T05:27:45.753Z,96.70
2018-08-13T05:30:27.319Z,96.70
2018-08-13T05:33:07.965Z,96.70
2018-08-13T05:35:48.555Z,96.80
2018-08-13T05:38:29.094Z,96.80
2018-08-13T05:41:10.141Z,96.80
2018-08-13T05:43:51.408Z,97.10
2018-08-13T05:46:32.850Z,97.10
2018-08-13T05:49:13.688Z,97.00
2018-08-13T05:51:57.633Z,96.90
2018-08-13T05:54:38.892Z,96.70
2018-08-13T05:57:20.788Z,96.70
2018-08-13T06:00:01.901Z,95.90
2018-08-13T06:02:44.115Z,95.60
2018-08-13T06:05:25.247Z,95.50
2018-08-13T06:08:05.918Z,95.30
2018-08-13T06:10:48.114Z,95.40
2018-08-13T06:13:29.985Z,95.40
2018-08-13T06:16:16.316Z,95.60
2018-08-13T06:18:58.881Z,94.70
2018-08-13T06:21:40.438Z,94.00
2018-08-13T06:24:23.086Z,93.60
2018-08-13T06:27:06.339Z,91.80
2018-08-13T06:29:48.664Z,90.60
2018-08-13T06:32:29.461Z,90.30
2018-08-13T06:35:11.234Z,90.00
2018-08-13T06:37:52.329Z,89.20
2018-08-13T06:40:33.685Z,87.00
2018-08-13T06:43:14.211Z,87.90
2018-08-13T06:45:55.294Z,87.60
2018-08-13T06:48:36.289Z,87.10
2018-08-13T06:51:16.877Z,86.90
2018-08-13T06:53:58.345Z,85.30
2018-08-13T06:56:39.200Z,84.00
2018-08-13T06:59:20.608Z,82.60
2018-08-13T07:02:01.267Z,79.10
2018-08-13T07:04:41.896Z,77.60
2018-08-13T07:07:23.355Z,74.80
2018-08-13T07:10:04.092Z,74.30
2018-08-13T07:12:46.105Z,72.10
2018-08-13T07:15:27.307Z,72.80
2018-08-13T07:18:08.758Z,74.20
2018-08-13T07:20:49.430Z,74.50
2018-08-13T07:23:31.061Z,74.70
2018-08-13T07:26:12.504Z,75.10
2018-08-13T07:28:53.187Z,75.60
2018-08-13T07:31:34.716Z,76.60
2018-08-13T07:34:15.298Z,78.00
2018-08-13T07:36:56.745Z,78.50
2018-08-13T07:39:37.354Z,78.90
2018-08-13T07:42:17.933Z,79.00
2018-08-13T07:44:58.665Z,79.00
2018-08-13T07:47:39.250Z,79.70
2018-08-13T07:50:20.789Z,80.00
2018-08-13T07:53:01.401Z,79.50
2018-08-13T07:55:41.993Z,78.30
2018-08-13T07:58:23.494Z,78.80
2018-08-13T08:01:04.067Z,78.50
2018-08-13T08:03:44.675Z,78.10
2018-08-13T08:06:25.210Z,77.50
2018-08-13T08:09:05.906Z,78.20
2018-08-13T08:11:46.515Z,77.30
2018-08-13T08:14:27.220Z,76.40
2018-08-13T08:17:08.744Z,76.50
2018-08-13T08:22:37.024Z,77.30
2018-08-13T08:25:19.705Z,77.00
2018-08-13T08:28:00.362Z,76.80
2018-08-13T08:30:41.648Z,75.70
2018-08-13T08:33:22.449Z,75.30
2018-08-13T08:36:03.037Z,75.20
2018-08-13T08:38:43.567Z,74.40
2018-08-13T08:41:24.360Z,73.30
2018-08-13T08:44:05.827Z,72.70
2018-08-13T08:46:46.648Z,72.00
2018-08-13T08:49:28.181Z,72.20
2018-08-13T08:52:09.700Z,72.70
2018-08-13T08:54:51.205Z,73.10
2018-08-13T08:57:31.829Z,73.30
2018-08-13T09:00:13.282Z,73.90
2018-08-13T09:02:53.917Z,73.80
2018-08-13T09:05:34.545Z,75.40
2018-08-13T09:08:16.171Z,75.40
2018-08-13T09:10:57.659Z,75.50
2018-08-13T09:13:38.263Z,75.60
2018-08-13T09:16:19.367Z,75.60
2018-08-13T09:19:00.445Z,76.30
2018-08-13T09:21:41.002Z,76.00
2018-08-13T09:24:21.585Z,76.20
2018-08-13T09:27:03.025Z,77.10
2018-08-13T09:29:43.670Z,76.90
2018-08-13T09:32:29.363Z,76.50
2018-08-13T09:35:09.880Z,76.80
2018-08-13T09:37:50.433Z,77.40
2018-08-13T09:40:32.276Z,76.70
2018-08-13T09:43:13.610Z,76.40
2018-08-13T09:45:55.158Z,75.90
2018-08-13T09:48:36.629Z,76.70
2018-08-13T09:51:17.210Z,78.40
2018-08-13T09:53:58.048Z,79.40
2018-08-13T09:56:39.569Z,79.80
2018-08-13T09:59:20.233Z,82.20
2018-08-13T10:02:00.826Z,82.50
2018-08-13T10:04:42.342Z,82.00
2018-08-13T10:07:23.826Z,82.10
2018-08-13T10:10:05.333Z,82.80
2018-08-13T10:12:46.446Z,83.60
2018-08-13T10:15:27.755Z,84.70
2018-08-13T10:18:08.341Z,84.10
2018-08-13T10:20:50.283Z,86.10
2018-08-13T10:23:31.432Z,86.60
2018-08-13T10:26:13.021Z,86.30
2018-08-13T10:28:53.542Z,87.40
2018-08-13T10:31:34.137Z,87.80
2018-08-13T10:34:14.762Z,88.20
2018-08-13T10:36:56.208Z,88.30
2018-08-13T10:39:36.759Z,88.10
2018-08-13T10:42:17.354Z,87.30
2018-08-13T10:44:58.126Z,86.20
2018-08-13T10:47:38.556Z,85.30
2018-08-13T10:50:19.184Z,84.20
2018-08-13T10:52:59.841Z,84.30
2018-08-13T10:55:40.504Z,84.90
2018-08-13T10:58:21.172Z,86.60
2018-08-13T11:01:02.002Z,87.60
2018-08-13T11:03:43.464Z,88.80
2018-08-13T11:06:25.013Z,89.30
2018-08-13T11:09:06.459Z,90.00
2018-08-13T11:11:47.136Z,90.30
2018-08-13T11:14:28.581Z,90.50
2018-08-13T11:17:09.963Z,90.10
2018-08-13T11:19:50.941Z,90.60
2018-08-13T11:22:32.298Z,90.90
2018-08-13T11:25:13.659Z,91.80
2018-08-13T11:27:54.424Z,92.00
2018-08-13T11:30:35.961Z,92.40
2018-08-13T11:33:16.496Z,92.30
2018-08-13T11:35:57.186Z,92.40
2018-08-13T11:38:37.714Z,92.60
2018-08-13T11:41:18.890Z,92.60
2018-08-13T11:43:59.899Z,92.90
2018-08-13T11:46:40.567Z,92.80
2018-08-13T11:49:21.177Z,92.90
2018-08-13T11:52:02.797Z,93.10
2018-08-13T11:54:44.378Z,92.90
2018-08-13T11:57:25.865Z,93.10
2018-08-13T12:00:06.548Z,93.10
2018-08-13T12:02:47.118Z,93.10
2018-08-13T12:05:28.682Z,93.10
2018-08-13T12:08:10.272Z,92.90
2018-08-13T12:10:50.824Z,92.90
2018-08-13T12:13:31.425Z,93.00
2018-08-13T12:16:12.931Z,92.70
2018-08-13T12:18:53.578Z,92.40
2018-08-13T12:21:34.231Z,92.90
2018-08-13T12:24:14.813Z,92.70
2018-08-13T12:26:55.407Z,92.90
2018-08-13T12:29:36.002Z,92.90
2018-08-13T12:32:17.554Z,93.20
2018-08-13T12:34:58.305Z,93.20
2018-08-13T12:37:39.775Z,92.90
2018-08-13T12:40:21.282Z,92.70
2018-08-13T12:43:02.016Z,92.80
2018-08-13T12:45:43.390Z,92.40
2018-08-13T12:48:23.973Z,92.50
2018-08-13T12:51:05.452Z,92.00
2018-08-13T12:53:47.400Z,92.20
2018-08-13T12:56:28.508Z,92.80
2018-08-13T12:59:09.209Z,92.70
2018-08-13T13:01:50.530Z,92.90
2018-08-13T13:04:31.610Z,93.20
2018-08-13T13:07:12.970Z,93.20
2018-08-13T13:09:53.626Z,93.20
2018-08-13T13:12:34.274Z,93.40
2018-08-13T13:15:16.391Z,93.20
2018-08-13T13:17:57.427Z,93.10
2018-08-13T13:20:38.107Z,93.10
2018-08-13T13:23:18.831Z,93.00
2018-08-13T13:25:59.500Z,92.90
2018-08-13T13:28:41.450Z,93.10
2018-08-13T13:31:23.557Z,93.30
2018-08-13T13:34:04.219Z,93.60
2018-08-13T13:36:45.022Z,93.00
2018-08-13T13:39:26.581Z,93.10
2018-08-13T13:42:07.230Z,92.90
2018-08-13T13:44:48.746Z,93.20
2018-08-13T13:47:30.224Z,93.40
2018-08-13T13:50:12.817Z,93.70
2018-08-13T13:52:53.403Z,93.40
2018-08-13T13:55:35.221Z,93.20
2018-08-13T13:58:15.873Z,93.30
2018-08-13T14:00:56.517Z,93.30
2018-08-13T14:03:37.272Z,93.30
2018-08-13T14:06:17.981Z,92.60
2018-08-13T14:08:59.435Z,92.60
2018-08-13T14:11:40.425Z,92.20
2018-08-13T14:14:21.855Z,91.80
2018-08-13T14:17:03.402Z,92.00
2018-08-13T14:19:44.058Z,91.70
2018-08-13T14:22:24.745Z,91.80
2018-08-13T14:25:05.383Z,91.90
2018-08-13T14:27:46.056Z,91.90
2018-08-13T14:30:27.762Z,92.00
2018-08-13T14:33:09.263Z,91.80
2018-08-13T14:35:49.932Z,91.60
2018-08-13T14:38:31.066Z,91.90
2018-08-13T14:41:12.488Z,91.60
2018-08-13T14:43:53.500Z,90.70
2018-08-13T14:46:34.689Z,91.50
2018-08-13T14:49:16.177Z,91.40
2018-08-13T14:51:57.751Z,92.20
2018-08-13T14:54:39.275Z,92.50
2018-08-13T14:57:20.070Z,92.10
2018-08-13T15:00:01.504Z,91.90
2018-08-13T15:02:42.068Z,91.70
2018-08-13T15:05:23.279Z,91.70
2018-08-13T15:08:04.333Z,91.60
2018-08-13T15:10:45.026Z,91.80
2018-08-13T15:13:25.680Z,91.70
2018-08-13T15:16:07.182Z,91.80
2018-08-13T15:18:48.563Z,92.00
2018-08-13T15:21:29.261Z,92.10
2018-08-13T15:24:10.026Z,92.10
2018-08-13T15:26:50.588Z,92.20
2018-08-13T15:29:31.518Z,92.40
2018-08-13T15:32:13.715Z,92.70
2018-08-13T15:34:54.507Z,92.80
2018-08-13T15:37:35.144Z,92.80
2018-08-13T15:40:15.867Z,92.90
2018-08-13T15:42:56.534Z,93.20
2018-08-13T15:45:37.975Z,93.30
2018-08-13T15:48:18.778Z,93.30
2018-08-13T15:51:00.243Z,93.30
2018-08-13T15:53:40.943Z,93.90
2018-08-13T15:56:21.602Z,94.10
2018-08-13T15:59:03.049Z,94.20
2018-08-13T16:01:44.654Z,93.80
2018-08-13T16:04:26.783Z,93.30
2018-08-13T16:07:07.793Z,93.00
2018-08-13T16:09:49.092Z,92.90
2018-08-13T16:12:29.750Z,92.90
2018-08-13T16:15:10.422Z,93.00
2018-08-13T16:17:51.874Z,92.80
2018-08-13T16:20:32.544Z,92.10
2018-08-13T16:23:13.096Z,92.10
2018-08-13T16:25:53.944Z,91.70
2018-08-13T16:28:35.313Z,91.70
2018-08-13T16:31:15.932Z,92.20
2018-08-13T16:33:56.544Z,92.60
2018-08-13T16:36:38.100Z,92.70
2018-08-13T16:39:19.601Z,92.70
2018-08-13T16:42:01.294Z,92.60
2018-08-13T16:44:42.808Z,92.60
2018-08-13T16:47:26.916Z,92.40
2018-08-13T16:50:08.758Z,92.30
2018-08-13T16:52:53.620Z,92.50
2018-08-13T16:55:34.360Z,92.90
2018-08-13T16:58:15.756Z,93.30
2018-08-13T17:00:56.361Z,93.30
2018-08-13T17:03:37.069Z,93.40
2018-08-13T17:06:18.502Z,93.80
2018-08-13T17:08:59.183Z,93.60
2018-08-13T17:11:39.702Z,93.70
2018-08-13T17:14:20.464Z,93.80
2018-08-13T17:17:01.096Z,93.90
2018-08-13T17:19:41.657Z,93.80
2018-08-13T17:22:22.382Z,93.80
2018-08-13T17:25:03.819Z,93.90
2018-08-13T17:27:45.465Z,94.00
2018-08-13T17:30:27.463Z,94.10
2018-08-13T17:33:08.619Z,94.20
2018-08-13T17:35:50.609Z,94.30
2018-08-13T17:38:31.445Z,94.60
2018-08-13T17:41:11.993Z,95.00
2018-08-13T17:43:52.689Z,95.00
2018-08-13T17:46:33.449Z,95.10
2018-08-13T17:49:14.993Z,95.10
2018-08-13T17:51:56.344Z,95.50
2018-08-13T17:54:37.869Z,95.70
2018-08-13T17:57:18.469Z,95.90
2018-08-13T17:59:59.021Z,96.10
2018-08-13T18:02:40.808Z,96.40
2018-08-13T18:05:23.037Z,96.50
2018-08-13T18:08:04.023Z,96.80
2018-08-13T18:10:45.356Z,96.90
2018-08-13T18:13:26.144Z,96.90
2018-08-13T18:16:07.645Z,96.90
2018-08-13T18:18:48.519Z,96.90
2018-08-13T18:21:29.934Z,96.90
2018-08-13T18:24:11.241Z,97.20
2018-08-13T18:26:51.858Z,97.50
2018-08-13T18:29:33.279Z,97.60
2018-08-13T18:32:14.855Z,97.50
2018-08-13T18:34:55.780Z,97.50
2018-08-13T18:37:37.164Z,97.80
2018-08-13T18:40:19.896Z,98.40
2018-08-13T18:43:01.344Z,99.10
2018-08-13T18:45:42.883Z,99.50
2018-08-13T18:48:24.338Z,99.90
2018-08-13T18:51:05.897Z,99.90
2018-08-13T18:53:47.334Z,99.90
2018-08-13T18:56:28.922Z,99.90
2018-08-13T18:59:10.826Z,99.90
2018-08-13T19:01:51.905Z,99.90
2018-08-13T19:04:33.424Z,99.90
2018-08-13T19:07:14.895Z,99.90
2018-08-13T19:09:55.492Z,99.90
2018-08-13T19:12:36.015Z,99.90
2018-08-13T19:15:17.126Z,99.90
2018-08-13T19:17:58.257Z,99.90
2018-08-13T19:20:38.925Z,99.90
2018-08-13T19:23:20.517Z,99.90
2018-08-13T19:26:02.317Z,99.90
2018-08-13T19:28:43.611Z,99.90
2018-08-13T19:31:24.292Z,99.90
2018-08-13T19:34:04.866Z,99.90
2018-08-13T19:36:45.583Z,99.90
2018-08-13T19:39:27.097Z,99.90
2018-08-13T19:42:07.879Z,99.90
2018-08-13T19:44:50.015Z,99.90
2018-08-13T19:47:31.011Z,99.90
2018-08-13T19:50:12.826Z,99.90
2018-08-13T19:52:54.138Z,99.90
2018-08-13T19:55:34.746Z,99.90
2018-08-13T19:58:15.390Z,99.90
2018-08-13T20:00:56.241Z,99.90
2018-08-13T20:03:37.664Z,99.90
2018-08-13T20:06:18.322Z,99.90
2018-08-13T20:08:59.653Z,99.90
2018-08-13T20:11:40.221Z,99.90
2018-08-13T20:14:21.003Z,99.90
2018-08-13T20:17:01.630Z,99.90
2018-08-13T20:19:42.216Z,99.90
2018-08-13T20:22:23.726Z,99.90
2018-08-13T20:25:04.252Z,99.90
2018-08-13T20:27:44.938Z,99.90
2018-08-13T20:30:26.457Z,99.90
2018-08-13T20:33:07.334Z,99.90
2018-08-13T20:35:47.943Z,99.90
2018-08-13T20:38:29.406Z,99.90
2018-08-13T20:41:10.089Z,99.90
2018-08-13T20:43:50.687Z,99.90
2018-08-13T20:46:31.506Z,99.90
2018-08-13T20:49:12.230Z,99.90
2018-08-13T20:51:53.574Z,99.90
2018-08-13T20:54:34.337Z,99.90
2018-08-13T20:57:15.782Z,99.90
2018-08-13T20:59:56.570Z,99.90
2018-08-13T21:02:38.429Z,99.90
2018-08-13T21:05:19.545Z,99.90
2018-08-13T21:08:00.131Z,99.90
2018-08-13T21:10:41.599Z,99.90
2018-08-13T21:13:22.393Z,99.90
2018-08-13T21:16:04.042Z,99.90
2018-08-13T21:18:44.514Z,99.90
2018-08-13T21:21:25.052Z,99.90
2018-08-13T21:24:06.014Z,99.90
2018-08-13T21:26:47.315Z,99.90
2018-08-13T21:29:28.945Z,99.90
2018-08-13T21:32:10.443Z,99.90
2018-08-13T21:34:52.065Z,99.70
2018-08-13T21:37:32.847Z,99.50
2018-08-13T21:40:14.516Z,99.40
2018-08-13T21:42:56.151Z,99.20
2018-08-13T21:45:36.741Z,99.00
2018-08-13T21:48:17.380Z,98.70
2018-08-13T21:50:57.997Z,98.50
2018-08-13T21:53:38.707Z,98.40
2018-08-13T21:56:19.341Z,98.00
2018-08-13T21:59:00.805Z,97.80
2018-08-13T22:01:45.577Z,97.30
2018-08-13T22:04:27.123Z,96.90
2018-08-13T22:07:08.588Z,96.40
2018-08-13T22:09:49.186Z,96.10
2018-08-13T22:12:30.000Z,95.90
2018-08-13T22:15:15.129Z,95.80
2018-08-13T22:17:57.280Z,95.70
2018-08-13T22:20:38.314Z,95.70
2018-08-13T22:23:19.424Z,95.60
2018-08-13T22:26:01.399Z,95.70
2018-08-13T22:28:42.601Z,95.70
2018-08-13T22:31:24.075Z,95.70
2018-08-13T22:34:04.667Z,95.70
2018-08-13T22:36:45.371Z,95.70
2018-08-13T22:39:26.843Z,95.70
2018-08-13T22:42:08.341Z,95.80
2018-08-13T22:44:48.955Z,95.80
2018-08-13T22:47:30.654Z,95.70
2018-08-13T22:50:12.073Z,95.70
2018-08-13T22:52:53.625Z,95.90
2018-08-13T22:55:34.333Z,95.80
2018-08-13T22:58:15.812Z,95.70
2018-08-13T23:00:56.536Z,95.70
2018-08-13T23:03:37.068Z,95.70
2018-08-13T23:06:17.832Z,95.70
2018-08-13T23:08:58.406Z,95.80
2018-08-13T23:11:39.005Z,95.50
2018-08-13T23:14:20.361Z,95.30
2018-08-13T23:17:01.116Z,95.50
2018-08-13T23:19:42.633Z,95.50
2018-08-13T23:22:24.157Z,95.40
2018-08-13T23:25:04.743Z,95.10
2018-08-13T23:27:45.415Z,95.00
2018-08-13T23:30:27.055Z,94.80
2018-08-13T23:33:08.323Z,95.00
2018-08-13T23:35:49.833Z,95.20
2018-08-13T23:38:30.551Z,94.90
2018-08-13T23:41:11.245Z,94.90
2018-08-13T23:43:51.787Z,95.00
2018-08-13T23:46:32.585Z,95.20
2018-08-13T23:49:13.837Z,95.50
2018-08-13T23:51:54.772Z,95.70
2018-08-13T23:54:36.292Z,96.00
2018-08-13T23:57:16.890Z,96.30
2018-08-13T23:59:58.314Z,96.60
